Cornwall Bridge, Connecticut
Current Conditions -  °F | °C
As of 8:50 AM on Sunday 25 Jan 2015 (Local Time) from KOXC Reporting Station
Broken Clouds Broken Clouds  
Wind Chill: -2°   Ceiling: 4500
Heat Index:   Visibility: 10mi
Dew Point: -5°   Wind: 7mph
Humidity: 65%   Direction: 270°W
Pressure: 29.62"   Gusts: NA
Location:  41.82°N, 73.37°W
Report Text: KOXC 251350Z 27006KT 10SM SCT033 BKN045 01/M05 A2962
Loading
Personal Weather Stations






























Interactive Weather Map New forecast layout! Learn more

10-Day Weather Forecast

Advertisements
Track Severe Weather on mobile